createdAt,value
2018-12-24T00:00:43.959Z,6.10
2018-12-24T00:03:09.938Z,6.10
2018-12-24T00:05:36.655Z,6.10
2018-12-24T00:08:03.003Z,6.20
2018-12-24T00:10:28.959Z,6.20
2018-12-24T00:12:54.989Z,6.20
2018-12-24T00:15:20.951Z,6.20
2018-12-24T00:17:46.947Z,6.20
2018-12-24T00:20:12.910Z,6.20
2018-12-24T00:22:38.926Z,6.20
2018-12-24T00:25:04.907Z,6.20
2018-12-24T00:27:30.900Z,6.30
2018-12-24T00:29:56.867Z,6.30
2018-12-24T00:32:23.639Z,6.20
2018-12-24T00:34:49.600Z,6.20
2018-12-24T00:37:15.617Z,6.20
2018-12-24T00:39:41.600Z,6.20
2018-12-24T00:42:15.608Z,6.20
2018-12-24T00:44:33.657Z,6.20
2018-12-24T00:46:59.684Z,6.10
2018-12-24T00:49:25.689Z,6.10
2018-12-24T00:51:51.705Z,6.10
2018-12-24T00:54:18.441Z,5.90
2018-12-24T00:56:45.169Z,5.80
2018-12-24T00:59:11.171Z,5.80
2018-12-24T01:01:37.129Z,5.80
2018-12-24T01:04:03.896Z,5.80
2018-12-24T01:06:29.862Z,5.90
2018-12-24T01:08:55.828Z,5.90
2018-12-24T01:11:21.823Z,5.90
2018-12-24T01:13:47.855Z,5.90
2018-12-24T01:16:13.851Z,5.90
2018-12-24T01:18:39.824Z,5.90
2018-12-24T01:21:05.808Z,5.90
2018-12-24T01:23:31.764Z,5.90
2018-12-24T01:25:57.753Z,6.00
2018-12-24T01:28:23.692Z,6.00
2018-12-24T01:30:50.446Z,6.10
2018-12-24T01:33:17.277Z,6.00
2018-12-24T01:35:43.350Z,6.00
2018-12-24T01:38:09.299Z,6.00
2018-12-24T01:40:35.293Z,6.10
2018-12-24T01:43:01.264Z,6.10
2018-12-24T01:45:27.256Z,6.00
2018-12-24T01:47:53.241Z,6.00
2018-12-24T01:50:19.222Z,6.00
2018-12-24T01:52:45.235Z,6.00
2018-12-24T01:55:11.210Z,6.00
2018-12-24T01:57:37.214Z,5.90
2018-12-24T02:00:03.181Z,5.90
2018-12-24T02:02:29.173Z,5.90
2018-12-24T02:04:55.130Z,5.90
2018-12-24T02:07:21.102Z,5.90
2018-12-24T02:09:47.792Z,5.90
2018-12-24T02:12:13.783Z,5.90
2018-12-24T02:14:40.497Z,5.90
2018-12-24T02:17:06.448Z,5.90
2018-12-24T02:19:32.451Z,6.00
2018-12-24T02:21:59.180Z,6.00
2018-12-24T02:24:25.161Z,6.00
2018-12-24T02:26:51.128Z,6.00
2018-12-24T02:29:17.545Z,6.00
2018-12-24T02:31:44.586Z,5.90
2018-12-24T02:34:10.552Z,5.90
2018-12-24T02:36:37.271Z,5.90
2018-12-24T02:39:03.225Z,5.90
2018-12-24T02:41:29.200Z,5.80
2018-12-24T02:43:55.157Z,5.80
2018-12-24T02:46:21.887Z,5.80
2018-12-24T02:48:48.582Z,5.80
2018-12-24T02:51:14.569Z,5.80
2018-12-24T02:53:40.537Z,5.70
2018-12-24T02:56:06.528Z,5.80
2018-12-24T02:58:32.502Z,5.70
2018-12-24T03:00:58.498Z,5.70
2018-12-24T03:03:24.444Z,5.70
2018-12-24T03:05:50.392Z,5.70
2018-12-24T03:08:17.120Z,5.60
2018-12-24T03:10:43.064Z,5.60
2018-12-24T03:13:09.778Z,5.60
2018-12-24T03:15:35.726Z,5.60
2018-12-24T03:18:02.447Z,5.60
2018-12-24T03:20:29.139Z,5.50
2018-12-24T03:22:55.084Z,5.50
2018-12-24T03:25:21.061Z,5.50
2018-12-24T03:27:47.012Z,5.50
2018-12-24T03:30:12.977Z,5.50
2018-12-24T03:32:39.682Z,5.50
2018-12-24T03:35:05.669Z,5.50
2018-12-24T03:37:31.619Z,5.50
2018-12-24T03:39:57.560Z,5.50
2018-12-24T03:42:23.561Z,5.40
2018-12-24T03:44:49.507Z,5.40
2018-12-24T03:47:15.490Z,5.40
2018-12-24T03:49:41.448Z,5.30
2018-12-24T03:52:07.448Z,5.30
2018-12-24T03:54:33.390Z,5.20
2018-12-24T03:56:59.352Z,5.20
2018-12-24T03:59:26.070Z,5.10
2018-12-24T04:01:52.047Z,5.10
2018-12-24T04:04:18.050Z,5.10
2018-12-24T04:06:44.027Z,5.10
2018-12-24T04:09:10.010Z,5.10
2018-12-24T04:11:35.991Z,5.10
2018-12-24T04:14:02.735Z,5.10
2018-12-24T04:16:28.680Z,5.10
2018-12-24T04:18:55.392Z,5.00
2018-12-24T04:21:22.778Z,5.00
2018-12-24T04:23:47.401Z,5.00
2018-12-24T04:26:13.365Z,5.00
2018-12-24T04:28:40.086Z,4.90
2018-12-24T04:31:06.158Z,4.90
2018-12-24T04:33:32.093Z,4.90
2018-12-24T04:35:58.078Z,4.80
2018-12-24T04:38:24.759Z,4.60
2018-12-24T04:40:50.846Z,4.60
2018-12-24T04:43:16.758Z,4.50
2018-12-24T04:45:43.508Z,4.20
2018-12-24T04:48:10.206Z,4.10
2018-12-24T04:50:36.169Z,4.10
2018-12-24T04:53:02.891Z,3.90
2018-12-24T04:55:28.865Z,3.80
2018-12-24T04:57:54.850Z,3.80
2018-12-24T05:00:21.599Z,3.70
2018-12-24T05:02:48.333Z,3.60
2018-12-24T05:05:15.053Z,3.50
2018-12-24T05:07:41.066Z,3.50
2018-12-24T05:10:07.035Z,3.50
2018-12-24T05:12:33.774Z,3.40
2018-12-24T05:14:59.738Z,3.40
2018-12-24T05:17:25.739Z,3.40
2018-12-24T05:19:51.708Z,3.30
2018-12-24T05:22:17.685Z,3.20
2018-12-24T05:24:43.661Z,3.10
2018-12-24T05:27:09.629Z,3.10
2018-12-24T05:29:35.637Z,3.10
2018-12-24T05:32:02.336Z,3.00
2018-12-24T05:34:28.337Z,3.10
2018-12-24T05:36:54.650Z,3.00
2018-12-24T05:39:20.629Z,2.90
2018-12-24T05:41:46.629Z,2.90
2018-12-24T05:44:12.612Z,3.00
2018-12-24T05:46:38.616Z,2.90
2018-12-24T05:49:05.316Z,2.70
2018-12-24T05:51:31.322Z,2.70
2018-12-24T05:53:57.311Z,2.80
2018-12-24T05:56:23.286Z,2.70
2018-12-24T05:58:49.300Z,2.60
2018-12-24T06:01:15.242Z,2.60
2018-12-24T06:03:41.243Z,2.50
2018-12-24T06:06:07.217Z,2.40
2018-12-24T06:08:33.199Z,2.50
2018-12-24T06:10:59.199Z,2.40
2018-12-24T06:13:25.156Z,2.30
2018-12-24T06:15:51.152Z,2.30
2018-12-24T06:18:17.119Z,2.20
2018-12-24T06:20:43.862Z,2.00
2018-12-24T06:23:10.562Z,2.00
2018-12-24T06:25:37.303Z,1.90
2018-12-24T06:28:03.246Z,1.90
2018-12-24T06:30:29.207Z,1.80
2018-12-24T06:32:55.935Z,1.80
2018-12-24T06:35:22.647Z,1.80
2018-12-24T06:37:48.624Z,1.80
2018-12-24T06:40:14.564Z,1.80
2018-12-24T06:42:40.538Z,1.70
2018-12-24T06:45:06.499Z,1.80
2018-12-24T06:47:32.475Z,1.90
2018-12-24T06:49:58.426Z,2.00
2018-12-24T06:52:24.423Z,2.00
2018-12-24T06:54:51.137Z,2.00
2018-12-24T06:57:17.127Z,1.90
2018-12-24T06:59:43.115Z,1.90
2018-12-24T07:02:09.056Z,1.90
2018-12-24T07:04:35.049Z,1.80
2018-12-24T07:07:01.040Z,1.70
2018-12-24T07:09:27.026Z,1.60
2018-12-24T07:11:53.012Z,1.60
2018-12-24T07:14:19.079Z,1.50
2018-12-24T07:16:45.032Z,1.40
2018-12-24T07:19:10.987Z,1.50
2018-12-24T07:21:36.960Z,1.30
2018-12-24T07:24:02.907Z,1.30
2018-12-24T07:26:28.895Z,1.30
2018-12-24T07:28:59.029Z,1.20
2018-12-24T07:31:20.853Z,1.20
2018-12-24T07:33:46.853Z,1.20
2018-12-24T07:36:12.811Z,1.20
2018-12-24T07:38:38.797Z,1.30
2018-12-24T07:41:04.765Z,1.20
2018-12-24T07:43:30.735Z,1.10
2018-12-24T07:45:57.430Z,1.10
2018-12-24T07:48:23.504Z,1.10
2018-12-24T07:50:49.500Z,1.10
2018-12-24T07:53:16.210Z,1.10
2018-12-24T07:55:42.189Z,1.10
2018-12-24T07:58:08.153Z,1.10
2018-12-24T08:00:34.137Z,1.10
2018-12-24T08:03:00.087Z,1.10
2018-12-24T08:05:26.095Z,1.20
2018-12-24T08:07:52.068Z,1.30
2018-12-24T08:10:18.059Z,1.30
2018-12-24T08:12:44.008Z,1.30
2018-12-24T08:15:09.973Z,1.30
2018-12-24T08:17:36.684Z,1.30
2018-12-24T08:20:02.642Z,1.30
2018-12-24T08:22:28.632Z,1.30
2018-12-24T08:24:54.577Z,1.30
2018-12-24T08:27:21.286Z,1.30
2018-12-24T08:29:47.230Z,1.30
2018-12-24T08:32:13.961Z,1.40
2018-12-24T08:34:39.905Z,1.40
2018-12-24T08:37:06.589Z,1.50
2018-12-24T08:39:32.567Z,1.50
2018-12-24T08:41:58.505Z,1.50
2018-12-24T08:44:24.503Z,1.60
2018-12-24T08:46:51.182Z,1.60
2018-12-24T08:49:17.160Z,1.60
2018-12-24T08:51:43.844Z,1.60
2018-12-24T08:54:09.844Z,1.70
2018-12-24T08:56:35.793Z,1.70
2018-12-24T08:59:01.759Z,1.70
2018-12-24T09:01:28.462Z,1.80
2018-12-24T09:03:54.453Z,1.70
2018-12-24T09:06:20.385Z,1.80
2018-12-24T09:08:46.333Z,1.80
2018-12-24T09:11:12.303Z,1.90
2018-12-24T09:13:39.014Z,2.30
2018-12-24T09:16:04.992Z,2.30
2018-12-24T09:18:30.961Z,3.40
2018-12-24T09:20:56.943Z,4.50
2018-12-24T09:23:22.894Z,5.40
2018-12-24T09:25:48.885Z,6.20
2018-12-24T09:28:15.608Z,7.40
2018-12-24T09:30:41.564Z,7.40
2018-12-24T09:33:07.574Z,7.50
2018-12-24T09:35:33.533Z,7.20
2018-12-24T09:37:59.526Z,7.50
2018-12-24T09:40:25.517Z,7.50
2018-12-24T09:42:51.800Z,7.40
2018-12-24T09:45:18.236Z,7.10
2018-12-24T09:47:44.200Z,7.10
2018-12-24T09:50:12.234Z,6.90
2018-12-24T09:52:36.938Z,6.90
2018-12-24T09:55:02.896Z,6.70
2018-12-24T09:57:28.843Z,6.70
2018-12-24T09:59:54.817Z,6.70
2018-12-24T10:02:21.527Z,6.40
2018-12-24T10:04:47.517Z,6.40
2018-12-24T10:07:13.473Z,6.20
2018-12-24T10:09:39.446Z,6.20
2018-12-24T10:12:05.432Z,6.20
2018-12-24T10:14:32.180Z,6.30
2018-12-24T10:17:00.642Z,6.30
2018-12-24T10:19:24.953Z,6.30
2018-12-24T10:21:51.711Z,7.10
2018-12-24T10:24:17.670Z,7.10
2018-12-24T10:26:43.664Z,7.20
2018-12-24T10:29:09.631Z,7.50
2018-12-24T10:31:35.616Z,8.00
2018-12-24T10:34:01.581Z,8.30
2018-12-24T10:36:27.616Z,8.80
2018-12-24T10:38:53.575Z,9.00
2018-12-24T10:41:19.550Z,9.00
2018-12-24T10:43:45.529Z,9.10
2018-12-24T10:46:11.498Z,8.70
2018-12-24T10:48:37.511Z,8.50
2018-12-24T10:51:03.472Z,8.10
2018-12-24T10:53:30.306Z,7.00
2018-12-24T10:55:56.207Z,7.00
2018-12-24T10:58:22.152Z,6.70
2018-12-24T11:00:48.880Z,6.50
2018-12-24T11:03:15.593Z,6.40
2018-12-24T11:05:41.580Z,6.40
2018-12-24T11:08:07.525Z,6.40
2018-12-24T11:10:33.505Z,6.40
2018-12-24T11:13:00.202Z,6.30
2018-12-24T11:15:26.160Z,6.30
2018-12-24T11:17:52.905Z,6.20
2018-12-24T11:20:19.600Z,6.10
2018-12-24T11:22:45.590Z,6.10
2018-12-24T11:25:11.541Z,6.10
2018-12-24T11:27:37.521Z,6.10
2018-12-24T11:30:04.224Z,6.20
2018-12-24T11:32:30.269Z,6.20
2018-12-24T11:34:56.992Z,6.20
2018-12-24T11:37:22.963Z,6.20
2018-12-24T11:39:48.949Z,6.30
2018-12-24T11:42:14.909Z,6.30
2018-12-24T11:44:40.893Z,6.30
2018-12-24T11:47:06.856Z,6.30
2018-12-24T11:49:32.834Z,6.20
2018-12-24T11:51:59.221Z,6.10
2018-12-24T11:54:24.862Z,6.00
2018-12-24T11:56:50.838Z,5.90
2018-12-24T11:59:17.595Z,5.90
2018-12-24T12:01:43.616Z,5.90
2018-12-24T12:04:09.575Z,6.10
2018-12-24T12:06:35.586Z,6.20
2018-12-24T12:09:01.568Z,6.30
2018-12-24T12:11:28.315Z,6.40
2018-12-24T12:13:54.293Z,6.40
2018-12-24T12:16:20.298Z,6.50
2018-12-24T12:18:46.284Z,6.60
2018-12-24T12:21:12.265Z,6.60
2018-12-24T12:23:38.204Z,6.60
2018-12-24T12:26:04.145Z,6.50
2018-12-24T12:28:30.160Z,6.40
2018-12-24T12:30:56.878Z,6.10
2018-12-24T12:33:22.876Z,6.10
2018-12-24T12:35:48.844Z,5.90
2018-12-24T12:38:15.575Z,5.90
2018-12-24T12:40:42.301Z,5.90
2018-12-24T12:43:08.251Z,5.90
2018-12-24T12:45:34.974Z,5.80
2018-12-24T12:48:00.918Z,5.80
2018-12-24T12:50:27.622Z,5.70
2018-12-24T12:52:53.583Z,5.70
2018-12-24T12:55:19.567Z,5.70
2018-12-24T12:57:45.540Z,5.70
2018-12-24T13:00:11.495Z,5.70
2018-12-24T13:02:37.501Z,5.60
2018-12-24T13:05:03.472Z,5.50
2018-12-24T13:07:29.443Z,5.50
2018-12-24T13:09:55.391Z,5.60
2018-12-24T13:12:21.383Z,5.70
2018-12-24T13:14:47.332Z,5.80
2018-12-24T13:17:13.284Z,5.70
2018-12-24T13:19:39.255Z,5.70
2018-12-24T13:22:05.237Z,5.70
2018-12-24T13:24:31.958Z,5.70
2018-12-24T13:26:57.935Z,5.70
2018-12-24T13:29:23.991Z,5.60
2018-12-24T13:31:49.936Z,5.50
2018-12-24T13:34:15.889Z,5.40
2018-12-24T13:36:41.865Z,5.30
2018-12-24T13:39:07.829Z,5.40
2018-12-24T13:41:34.535Z,5.40
2018-12-24T13:44:00.485Z,5.40
2018-12-24T13:46:27.211Z,5.40
2018-12-24T13:48:53.917Z,5.40
2018-12-24T13:51:19.867Z,5.40
2018-12-24T13:53:45.853Z,5.50
2018-12-24T13:56:11.828Z,5.60
2018-12-24T13:58:38.558Z,5.60
2018-12-24T14:01:05.292Z,5.70
2018-12-24T14:03:32.022Z,5.80
2018-12-24T14:05:57.970Z,5.80
2018-12-24T14:08:24.692Z,5.90
2018-12-24T14:10:50.649Z,5.90
2018-12-24T14:13:16.629Z,6.00
2018-12-24T14:15:42.572Z,6.00
2018-12-24T14:18:09.268Z,5.90
2018-12-24T14:20:35.313Z,5.90
2018-12-24T14:23:01.251Z,5.90
2018-12-24T14:25:27.226Z,5.90
2018-12-24T14:27:53.169Z,5.80
2018-12-24T14:30:19.135Z,5.70
2018-12-24T14:32:45.111Z,5.60
2018-12-24T14:35:11.056Z,5.50
2018-12-24T14:37:37.031Z,5.30
2018-12-24T14:40:02.983Z,5.20
2018-12-24T14:42:28.974Z,5.10
2018-12-24T14:44:54.927Z,5.10
2018-12-24T14:47:20.869Z,5.00
2018-12-24T14:49:46.849Z,4.90
2018-12-24T14:52:12.802Z,4.80
2018-12-24T14:54:38.768Z,4.70
2018-12-24T14:57:04.726Z,4.70
2018-12-24T14:59:30.719Z,4.80
2018-12-24T15:01:56.658Z,4.80
2018-12-24T15:04:22.650Z,4.80
2018-12-24T15:06:49.369Z,4.80
2018-12-24T15:09:15.335Z,4.90
2018-12-24T15:11:41.324Z,4.90
2018-12-24T15:14:09.264Z,4.90
2018-12-24T15:16:35.945Z,4.90
2018-12-24T15:19:01.232Z,5.00
2018-12-24T15:21:27.979Z,5.00
2018-12-24T15:23:54.656Z,5.10
2018-12-24T15:26:20.606Z,5.00
2018-12-24T15:28:46.573Z,5.00
2018-12-24T15:31:13.275Z,5.00
2018-12-24T15:33:39.344Z,5.00
2018-12-24T15:36:05.297Z,4.90
2018-12-24T15:38:31.319Z,4.80
2018-12-24T15:40:57.290Z,4.70
2018-12-24T15:43:23.233Z,4.60
2018-12-24T15:45:49.210Z,4.60
2018-12-24T15:48:15.179Z,4.50
2018-12-24T15:50:41.176Z,4.40
2018-12-24T15:53:07.883Z,4.40
2018-12-24T15:55:33.875Z,4.40
2018-12-24T15:57:59.831Z,4.30
2018-12-24T16:00:25.824Z,4.20
2018-12-24T16:02:51.796Z,4.00
2018-12-24T16:05:17.743Z,3.90
2018-12-24T16:07:44.464Z,3.80
2018-12-24T16:10:10.422Z,3.80
2018-12-24T16:12:36.408Z,3.70
2018-12-24T16:15:02.372Z,3.60
2018-12-24T16:17:28.356Z,3.60
2018-12-24T16:19:54.300Z,3.50
2018-12-24T16:22:20.991Z,3.40
2018-12-24T16:24:46.963Z,3.40
2018-12-24T16:27:13.668Z,3.30
2018-12-24T16:29:39.657Z,3.30
2018-12-24T16:32:05.601Z,3.30
2018-12-24T16:34:31.577Z,3.30
2018-12-24T16:36:57.520Z,3.40
2018-12-24T16:39:23.465Z,3.40
2018-12-24T16:41:49.461Z,3.50
2018-12-24T16:44:15.428Z,3.50
2018-12-24T16:46:41.409Z,3.50
2018-12-24T16:49:07.371Z,3.60
2018-12-24T16:51:33.353Z,3.60
2018-12-24T16:53:59.299Z,3.60
2018-12-24T16:56:25.251Z,3.60
2018-12-24T16:58:51.264Z,3.70
2018-12-24T17:01:17.221Z,3.70
2018-12-24T17:03:43.201Z,3.60
2018-12-24T17:06:09.165Z,3.50
2018-12-24T17:08:35.870Z,3.40
2018-12-24T17:11:01.841Z,3.40
2018-12-24T17:13:27.829Z,3.30
2018-12-24T17:15:53.774Z,3.20
2018-12-24T17:18:20.484Z,3.10
2018-12-24T17:20:46.451Z,3.10
2018-12-24T17:23:12.394Z,3.10
2018-12-24T17:25:38.372Z,3.00
2018-12-24T17:28:05.062Z,3.00
2018-12-24T17:30:31.039Z,2.90
2018-12-24T17:32:57.713Z,2.90
2018-12-24T17:35:23.807Z,2.80
2018-12-24T17:37:49.777Z,2.80
2018-12-24T17:40:15.742Z,2.70
2018-12-24T17:42:42.447Z,2.70
2018-12-24T17:45:08.420Z,2.70
2018-12-24T17:47:34.399Z,2.70
2018-12-24T17:50:00.344Z,2.70
2018-12-24T17:52:27.078Z,2.60
2018-12-24T17:54:53.794Z,2.60
2018-12-24T17:57:20.519Z,2.60
2018-12-24T17:59:46.467Z,2.50
2018-12-24T18:02:12.412Z,2.50
2018-12-24T18:04:38.424Z,2.50
2018-12-24T18:07:05.118Z,2.50
2018-12-24T18:09:31.094Z,2.50
2018-12-24T18:11:57.037Z,2.60
2018-12-24T18:14:23.042Z,2.60
2018-12-24T18:16:49.738Z,2.80
2018-12-24T18:19:15.682Z,2.80
2018-12-24T18:21:41.668Z,2.80
2018-12-24T18:24:07.686Z,2.70
2018-12-24T18:26:33.673Z,2.90
2018-12-24T18:29:00.385Z,2.80
2018-12-24T18:31:26.355Z,2.80
2018-12-24T18:33:52.319Z,2.90
2018-12-24T18:36:18.274Z,2.90
2018-12-24T18:38:44.256Z,3.00
2018-12-24T18:41:10.203Z,3.00
2018-12-24T18:43:36.167Z,3.10
2018-12-24T18:46:02.102Z,3.10
2018-12-24T18:48:28.083Z,3.10
2018-12-24T18:50:54.794Z,3.00
2018-12-24T18:53:20.786Z,3.00
2018-12-24T18:55:46.735Z,3.00
2018-12-24T18:58:12.719Z,3.00
2018-12-24T19:00:38.683Z,3.00
2018-12-24T19:03:04.660Z,3.00
2018-12-24T19:05:30.637Z,3.10
2018-12-24T19:07:56.592Z,3.10
2018-12-24T19:10:23.319Z,3.30
2018-12-24T19:12:49.274Z,3.30
2018-12-24T19:15:15.267Z,3.30
2018-12-24T19:17:41.976Z,3.50
2018-12-24T19:20:07.924Z,3.40
2018-12-24T19:22:34.687Z,3.60
2018-12-24T19:25:01.375Z,3.60
2018-12-24T19:27:27.372Z,3.60
2018-12-24T19:29:53.339Z,3.60
2018-12-24T19:32:19.332Z,3.70
2018-12-24T19:34:45.281Z,3.70
2018-12-24T19:37:11.255Z,3.80
2018-12-24T19:39:37.247Z,3.90
2018-12-24T19:42:03.954Z,3.90
2018-12-24T19:44:29.930Z,3.90
2018-12-24T19:46:55.887Z,3.90
2018-12-24T19:49:21.885Z,3.90
2018-12-24T19:51:47.853Z,3.80
2018-12-24T19:54:13.937Z,3.70
2018-12-24T19:56:39.850Z,3.60
2018-12-24T19:59:06.560Z,3.50
2018-12-24T20:01:32.504Z,3.50
2018-12-24T20:03:58.500Z,3.50
2018-12-24T20:06:24.440Z,3.40
2018-12-24T20:08:51.136Z,3.20
2018-12-24T20:11:17.118Z,3.20
2018-12-24T20:13:43.076Z,3.20
2018-12-24T20:16:09.041Z,3.20
2018-12-24T20:18:35.114Z,3.30
2018-12-24T20:21:01.085Z,3.30
2018-12-24T20:23:27.806Z,3.60
2018-12-24T20:25:53.754Z,3.60
2018-12-24T20:28:20.458Z,3.60
2018-12-24T20:30:46.412Z,3.60
2018-12-24T20:33:12.391Z,3.70
2018-12-24T20:35:38.335Z,3.70
2018-12-24T20:38:04.275Z,3.80
2018-12-24T20:40:30.247Z,3.80
2018-12-24T20:42:56.213Z,3.80
2018-12-24T20:45:22.195Z,3.80
2018-12-24T20:47:48.166Z,3.90
2018-12-24T20:50:14.161Z,3.90
2018-12-24T20:52:40.107Z,3.90
2018-12-24T20:55:06.084Z,3.80
2018-12-24T20:57:32.025Z,3.80
2018-12-24T20:59:58.003Z,3.80
2018-12-24T21:02:23.965Z,3.80
2018-12-24T21:04:49.926Z,3.80
2018-12-24T21:07:16.657Z,3.90
2018-12-24T21:09:42.616Z,3.80
2018-12-24T21:12:08.586Z,3.90
2018-12-24T21:14:34.521Z,3.80
2018-12-24T21:17:00.517Z,3.80
2018-12-24T21:19:26.481Z,3.70
2018-12-24T21:21:53.223Z,3.60
2018-12-24T21:24:19.214Z,3.60
2018-12-24T21:26:45.197Z,3.60
2018-12-24T21:29:11.183Z,3.60
2018-12-24T21:31:37.178Z,3.60
2018-12-24T21:34:10.188Z,3.50
2018-12-24T21:36:36.183Z,3.50
2018-12-24T21:39:02.160Z,3.70
2018-12-24T21:41:28.138Z,3.60
2018-12-24T21:43:54.140Z,3.50
2018-12-24T21:46:20.092Z,3.60
2018-12-24T21:48:46.043Z,3.60
2018-12-24T21:51:12.771Z,3.60
2018-12-24T21:53:39.460Z,3.60
2018-12-24T21:56:05.442Z,3.60
2018-12-24T21:58:32.147Z,3.60
2018-12-24T22:00:58.158Z,3.60
2018-12-24T22:03:24.116Z,3.60
2018-12-24T22:05:50.879Z,3.60
2018-12-24T22:08:17.631Z,3.50
2018-12-24T22:10:43.641Z,3.60
2018-12-24T22:13:10.353Z,3.50
2018-12-24T22:15:36.324Z,3.50
2018-12-24T22:18:02.314Z,3.50
2018-12-24T22:20:29.030Z,3.60
2018-12-24T22:22:55.045Z,3.60
2018-12-24T22:25:21.087Z,3.60
2018-12-24T22:27:47.096Z,3.60
2018-12-24T22:30:13.091Z,3.60
2018-12-24T22:32:39.049Z,3.60
2018-12-24T22:35:05.047Z,3.60
2018-12-24T22:37:31.038Z,3.60
2018-12-24T22:39:57.029Z,3.50
2018-12-24T22:42:23.019Z,3.60
2018-12-24T22:44:49.038Z,3.60
2018-12-24T22:47:15.040Z,3.70
2018-12-24T22:49:41.209Z,3.70
2018-12-24T22:52:07.388Z,3.80
2018-12-24T22:54:33.356Z,3.90
2018-12-24T22:56:59.432Z,3.90
2018-12-24T22:59:25.442Z,3.90
2018-12-24T23:01:51.458Z,3.90
2018-12-24T23:04:18.186Z,3.90
2018-12-24T23:06:44.195Z,3.90
2018-12-24T23:09:10.256Z,3.90
2018-12-24T23:11:37.010Z,4.00
2018-12-24T23:14:03.033Z,4.00
2018-12-24T23:16:29.037Z,4.10
2018-12-24T23:18:55.072Z,4.10
2018-12-24T23:21:21.775Z,4.20
2018-12-24T23:23:47.823Z,4.20
2018-12-24T23:26:13.856Z,4.30
2018-12-24T23:28:39.887Z,4.40
2018-12-24T23:31:06.110Z,4.30
2018-12-24T23:33:32.040Z,4.20
2018-12-24T23:35:58.079Z,4.20
2018-12-24T23:38:27.271Z,4.20
2018-12-24T23:40:53.361Z,4.30
2018-12-24T23:43:20.115Z,4.30
2018-12-24T23:45:46.157Z,4.30
2018-12-24T23:48:12.148Z,4.30
2018-12-24T23:50:38.179Z,4.20
2018-12-24T23:53:04.892Z,4.30
2018-12-24T23:55:30.917Z,4.30
2018-12-24T23:57:57.035Z,4.30
